createdAt,value
2019-04-26T00:00:45.883Z,73.91
2019-04-26T00:03:16.243Z,73.89
2019-04-26T00:05:45.517Z,74.08
2019-04-26T00:08:15.905Z,74.13
2019-04-26T00:10:51.498Z,74.30
2019-04-26T00:13:33.466Z,74.55
2019-04-26T00:16:16.812Z,74.65
2019-04-26T00:18:45.217Z,74.62
2019-04-26T00:21:14.068Z,74.72
2019-04-26T00:23:43.707Z,74.81
2019-04-26T00:26:13.434Z,74.83
2019-04-26T00:28:41.934Z,74.90
2019-04-26T00:31:11.387Z,75.04
2019-04-26T00:33:39.919Z,75.29
2019-04-26T00:36:08.825Z,75.33
2019-04-26T00:38:37.161Z,75.43
2019-04-26T00:41:05.550Z,75.56
2019-04-26T00:43:34.704Z,75.69
2019-04-26T00:46:04.261Z,75.71
2019-04-26T00:48:33.494Z,75.40
2019-04-26T00:51:03.998Z,75.12
2019-04-26T00:53:34.972Z,75.26
2019-04-26T00:56:05.481Z,75.38
2019-04-26T00:58:34.795Z,75.43
2019-04-26T01:01:03.182Z,75.46
2019-04-26T01:03:31.583Z,75.53
2019-04-26T01:06:01.626Z,74.85
2019-04-26T01:08:30.003Z,74.79
2019-04-26T01:10:58.515Z,74.71
2019-04-26T01:13:27.178Z,74.89
2019-04-26T01:15:55.818Z,73.84
2019-04-26T01:18:24.487Z,73.33
2019-04-26T01:20:56.064Z,73.13
2019-04-26T01:23:27.373Z,72.54
2019-04-26T01:26:10.903Z,72.49
2019-04-26T01:28:42.334Z,72.47
2019-04-26T01:31:12.068Z,72.85
2019-04-26T01:33:40.804Z,73.15
2019-04-26T01:36:13.409Z,73.46
2019-04-26T01:38:39.520Z,73.58
2019-04-26T01:41:14.709Z,73.54
2019-04-26T01:43:53.215Z,73.01
2019-04-26T01:46:31.630Z,72.26
2019-04-26T01:49:05.932Z,70.63
2019-04-26T01:51:41.833Z,70.72
2019-04-26T01:54:13.262Z,70.86
2019-04-26T01:56:41.707Z,70.91
2019-04-26T01:59:13.383Z,71.30
2019-04-26T02:01:43.476Z,71.31
2019-04-26T02:04:11.958Z,70.68
2019-04-26T02:06:40.345Z,70.17
2019-04-26T02:09:10.168Z,69.74
2019-04-26T02:11:39.827Z,69.30
2019-04-26T02:14:08.554Z,69.09
2019-04-26T02:16:37.378Z,69.55
2019-04-26T02:19:05.991Z,69.45
2019-04-26T02:21:36.616Z,69.51
2019-04-26T02:24:06.894Z,69.49
2019-04-26T02:26:40.348Z,69.42
2019-04-26T02:29:20.876Z,69.49
2019-04-26T02:32:04.088Z,69.45
2019-04-26T02:34:35.989Z,69.41
2019-04-26T02:37:07.599Z,69.73
2019-04-26T02:39:39.079Z,69.99
2019-04-26T02:42:16.641Z,69.28
2019-04-26T02:45:06.214Z,68.82
2019-04-26T02:47:54.129Z,69.04
2019-04-26T02:50:34.793Z,68.80
2019-04-26T02:53:20.671Z,69.55
2019-04-26T02:56:12.004Z,70.30
2019-04-26T02:58:43.437Z,70.13
2019-04-26T03:01:12.183Z,69.94
2019-04-26T03:03:40.574Z,70.39
2019-04-26T03:06:09.101Z,70.75
2019-04-26T03:08:39.381Z,70.97
2019-04-26T03:11:10.849Z,71.25
2019-04-26T03:13:43.948Z,71.28
2019-04-26T03:16:23.026Z,71.75
2019-04-26T03:19:02.551Z,71.70
2019-04-26T03:21:46.592Z,71.89
2019-04-26T03:24:18.332Z,72.34
2019-04-26T03:26:58.452Z,73.23
2019-04-26T03:29:31.834Z,73.84
2019-04-26T03:32:23.397Z,74.52
2019-04-26T03:34:59.454Z,74.76
2019-04-26T03:37:47.374Z,74.41
2019-04-26T03:40:40.298Z,75.01
2019-04-26T03:43:14.624Z,75.34
2019-04-26T03:46:07.136Z,75.57
2019-04-26T03:48:47.681Z,75.99
2019-04-26T03:51:43.102Z,76.00
2019-04-26T03:54:24.209Z,75.72
2019-04-26T03:57:03.042Z,75.52
2019-04-26T03:59:38.342Z,76.13
2019-04-26T04:02:17.174Z,76.13
2019-04-26T04:04:59.109Z,75.87
2019-04-26T04:07:39.503Z,76.04
2019-04-26T04:10:19.379Z,75.81
2019-04-26T04:12:50.949Z,76.21
2019-04-26T04:15:25.456Z,76.60
2019-04-26T04:18:04.591Z,76.86
2019-04-26T04:20:48.079Z,77.18
2019-04-26T04:23:25.832Z,77.41
2019-04-26T04:25:56.852Z,77.66
2019-04-26T04:28:46.490Z,78.59
2019-04-26T04:31:27.170Z,78.55
2019-04-26T04:34:01.739Z,79.22
2019-04-26T04:36:33.218Z,79.45
2019-04-26T04:39:12.531Z,79.56
2019-04-26T04:41:42.979Z,79.33
2019-04-26T04:44:25.157Z,79.28
2019-04-26T04:47:24.126Z,79.31
2019-04-26T04:50:15.375Z,79.51
2019-04-26T04:52:50.089Z,79.58
2019-04-26T04:55:36.431Z,79.58
2019-04-26T04:58:07.857Z,79.75
2019-04-26T05:00:57.652Z,79.93
2019-04-26T05:03:44.066Z,79.93
2019-04-26T05:06:23.585Z,80.32
2019-04-26T05:09:13.044Z,80.30
2019-04-26T05:12:02.233Z,80.37
2019-04-26T05:14:43.672Z,80.41
2019-04-26T05:17:38.340Z,80.38
2019-04-26T05:20:28.959Z,80.44
2019-04-26T05:23:17.079Z,80.48
2019-04-26T05:26:01.945Z,80.58
2019-04-26T05:28:35.044Z,80.57
2019-04-26T05:31:10.581Z,80.63
2019-04-26T05:34:05.695Z,80.58
2019-04-26T05:36:55.030Z,80.50
2019-04-26T05:39:32.275Z,80.53
2019-04-26T05:42:23.191Z,80.53
2019-04-26T05:45:21.829Z,80.61
2019-04-26T05:48:19.304Z,80.72
2019-04-26T05:50:58.208Z,81.09
2019-04-26T05:53:55.099Z,81.09
2019-04-26T05:56:33.741Z,80.75
2019-04-26T05:59:23.436Z,80.84
2019-04-26T06:02:13.757Z,80.83
2019-04-26T06:05:25.996Z,80.72
2019-04-26T06:08:14.014Z,80.58
2019-04-26T06:10:52.724Z,80.47
2019-04-26T06:13:57.822Z,80.41
2019-04-26T06:16:52.163Z,80.30
2019-04-26T06:19:43.908Z,80.11
2019-04-26T06:22:21.234Z,80.13
2019-04-26T06:24:54.238Z,80.03
2019-04-26T06:27:27.349Z,79.87
2019-04-26T06:30:01.393Z,79.80
2019-04-26T06:32:35.838Z,79.75
2019-04-26T06:35:20.321Z,79.62
2019-04-26T06:38:11.938Z,79.58
2019-04-26T06:41:11.997Z,79.58
2019-04-26T06:43:47.722Z,79.49
2019-04-26T06:46:48.623Z,79.63
2019-04-26T06:49:36.648Z,79.58
2019-04-26T06:52:10.902Z,79.53
2019-04-26T06:54:59.769Z,79.51
2019-04-26T06:57:52.214Z,79.34
2019-04-26T07:00:24.934Z,79.23
2019-04-26T07:03:23.846Z,79.17
2019-04-26T07:06:04.504Z,79.18
2019-04-26T07:08:39.048Z,79.06
2019-04-26T07:11:35.572Z,78.09
2019-04-26T07:14:36.122Z,77.58
2019-04-26T07:17:12.114Z,76.66
2019-04-26T07:20:14.035Z,76.77
2019-04-26T07:23:02.343Z,77.06
2019-04-26T07:26:01.646Z,77.72
2019-04-26T07:28:51.349Z,78.19
2019-04-26T07:31:29.008Z,78.42
2019-04-26T07:34:24.988Z,78.67
2019-04-26T07:37:16.320Z,78.84
2019-04-26T07:39:52.255Z,78.90
2019-04-26T07:42:37.922Z,78.95
2019-04-26T07:45:20.086Z,78.53
2019-04-26T07:48:19.249Z,76.81
2019-04-26T07:51:17.695Z,77.11
2019-04-26T07:53:55.130Z,77.18
2019-04-26T07:56:41.583Z,75.86
2019-04-26T07:59:42.169Z,73.87
2019-04-26T08:02:34.175Z,74.38
2019-04-26T08:05:11.737Z,73.42
2019-04-26T08:07:43.446Z,71.91
2019-04-26T08:10:17.613Z,72.14
2019-04-26T08:13:04.893Z,71.58
2019-04-26T08:15:39.495Z,70.71
2019-04-26T08:18:13.107Z,69.99
2019-04-26T08:20:49.130Z,70.66
2019-04-26T08:23:39.482Z,71.13
2019-04-26T08:26:03.373Z,71.30
2019-04-26T08:28:34.800Z,69.80
2019-04-26T08:31:07.456Z,69.78
2019-04-26T08:33:48.263Z,69.35
2019-04-26T08:36:14.663Z,67.75
2019-04-26T08:38:45.153Z,68.30
2019-04-26T08:41:14.183Z,67.87
2019-04-26T08:44:03.715Z,67.76
2019-04-26T08:46:44.198Z,68.73
2019-04-26T08:49:19.450Z,68.08
2019-04-26T08:51:52.136Z,68.29
2019-04-26T08:54:23.577Z,69.11
2019-04-26T08:57:04.218Z,67.98
2019-04-26T08:59:35.652Z,68.13
2019-04-26T09:02:08.335Z,68.62
2019-04-26T09:04:50.149Z,69.18
2019-04-26T09:07:23.227Z,67.77
2019-04-26T09:09:57.372Z,67.38
2019-04-26T09:12:27.532Z,68.08
2019-04-26T09:14:58.967Z,67.20
2019-04-26T09:17:27.687Z,67.58
2019-04-26T09:19:58.260Z,66.51
2019-04-26T09:22:37.350Z,64.59
2019-04-26T09:25:22.716Z,63.54
2019-04-26T09:27:55.645Z,63.41
2019-04-26T09:30:38.461Z,62.95
2019-04-26T09:33:09.466Z,63.11
2019-04-26T09:35:38.468Z,63.23
2019-04-26T09:38:06.836Z,65.12
2019-04-26T09:40:35.211Z,64.14
2019-04-26T09:43:15.227Z,64.51
2019-04-26T09:45:43.220Z,64.82
2019-04-26T09:48:16.194Z,63.22
2019-04-26T09:50:48.635Z,64.22
2019-04-26T09:53:17.404Z,64.40
2019-04-26T09:55:45.841Z,65.45
2019-04-26T09:58:14.455Z,65.91
2019-04-26T10:00:44.151Z,64.69
2019-04-26T10:03:13.578Z,63.25
2019-04-26T10:05:42.048Z,64.24
2019-04-26T10:08:12.805Z,64.55
2019-04-26T10:10:41.032Z,63.98
2019-04-26T10:13:15.070Z,65.03
2019-04-26T10:15:58.209Z,64.17
2019-04-26T10:18:27.784Z,63.99
2019-04-26T10:20:56.422Z,63.49
2019-04-26T10:23:24.814Z,64.24
2019-04-26T10:25:53.655Z,64.02
2019-04-26T10:28:23.119Z,63.88
2019-04-26T10:30:51.579Z,62.95
2019-04-26T10:33:20.040Z,63.36
2019-04-26T10:35:48.450Z,64.08
2019-04-26T10:38:19.301Z,62.85
2019-04-26T10:40:47.057Z,60.86
2019-04-26T10:43:15.458Z,61.01
2019-04-26T10:45:46.008Z,60.67
2019-04-26T10:48:15.531Z,60.99
2019-04-26T10:50:45.294Z,59.89
2019-04-26T10:53:25.560Z,60.76
2019-04-26T10:56:12.211Z,60.61
2019-04-26T10:58:42.296Z,58.81
2019-04-26T11:01:14.293Z,58.95
2019-04-26T11:03:42.678Z,59.73
2019-04-26T11:06:11.493Z,56.73
2019-04-26T11:08:39.959Z,54.44
2019-04-26T11:11:10.299Z,54.09
2019-04-26T11:13:38.890Z,53.87
2019-04-26T11:16:08.962Z,53.30
2019-04-26T11:18:37.515Z,54.85
2019-04-26T11:21:06.071Z,55.55
2019-04-26T11:23:34.679Z,57.25
2019-04-26T11:26:03.299Z,56.92
2019-04-26T11:28:31.762Z,56.45
2019-04-26T11:31:00.535Z,56.16
2019-04-26T11:33:28.909Z,55.71
2019-04-26T11:35:57.534Z,54.35
2019-04-26T11:38:26.896Z,55.49
2019-04-26T11:41:05.733Z,54.17
2019-04-26T11:43:26.178Z,53.96
2019-04-26T11:46:04.146Z,53.07
2019-04-26T11:48:25.434Z,53.55
2019-04-26T11:50:55.611Z,53.21
2019-04-26T11:53:24.020Z,52.85
2019-04-26T11:55:54.329Z,52.03
2019-04-26T11:58:23.684Z,53.00
2019-04-26T12:00:53.920Z,51.71
2019-04-26T12:03:24.927Z,52.70
2019-04-26T12:06:09.291Z,51.95
2019-04-26T12:08:45.083Z,53.28
2019-04-26T12:11:18.600Z,51.74
2019-04-26T12:13:43.694Z,49.74
2019-04-26T12:16:14.527Z,51.54
2019-04-26T12:18:44.149Z,49.86
2019-04-26T12:21:12.305Z,49.01
2019-04-26T12:23:40.722Z,48.82
2019-04-26T12:26:09.097Z,46.83
2019-04-26T12:28:40.024Z,46.85
2019-04-26T12:31:07.604Z,47.15
2019-04-26T12:33:39.202Z,47.94
2019-04-26T12:36:09.455Z,48.89
2019-04-26T12:38:36.416Z,49.17
2019-04-26T12:41:04.794Z,48.06
2019-04-26T12:43:33.187Z,47.16
2019-04-26T12:46:14.239Z,47.21
2019-04-26T12:48:45.990Z,47.48
2019-04-26T12:51:13.517Z,46.71
2019-04-26T12:53:42.155Z,45.53
2019-04-26T12:56:10.538Z,46.92
2019-04-26T12:58:38.937Z,45.27
2019-04-26T13:01:12.087Z,46.36
2019-04-26T13:03:39.487Z,45.20
2019-04-26T13:06:08.028Z,45.39
2019-04-26T13:08:36.434Z,43.92
2019-04-26T13:11:22.915Z,45.48
2019-04-26T13:13:52.943Z,44.52
2019-04-26T13:16:26.302Z,44.86
2019-04-26T13:18:55.772Z,45.11
2019-04-26T13:21:24.902Z,45.58
2019-04-26T13:23:55.657Z,45.46
2019-04-26T13:26:23.749Z,44.54
2019-04-26T13:28:56.974Z,45.72
2019-04-26T13:31:22.811Z,45.59
2019-04-26T13:33:51.491Z,45.54
2019-04-26T13:36:20.215Z,45.06
2019-04-26T13:38:48.581Z,45.33
2019-04-26T13:41:16.979Z,44.65
2019-04-26T13:43:45.663Z,44.43
2019-04-26T13:46:30.831Z,45.63
2019-04-26T13:49:18.039Z,44.44
2019-04-26T13:51:47.089Z,43.31
2019-04-26T13:54:16.443Z,42.94
2019-04-26T13:56:45.636Z,43.85
2019-04-26T13:59:14.101Z,42.71
2019-04-26T14:01:42.630Z,42.91
2019-04-26T14:04:11.076Z,44.31
2019-04-26T14:06:40.838Z,44.25
2019-04-26T14:09:11.612Z,42.61
2019-04-26T14:11:40.053Z,43.38
2019-04-26T14:14:08.543Z,42.63
2019-04-26T14:16:36.997Z,41.27
2019-04-26T14:19:05.568Z,43.31
2019-04-26T14:21:34.857Z,41.73
2019-04-26T14:24:24.097Z,42.84
2019-04-26T14:26:52.297Z,41.34
2019-04-26T14:29:20.676Z,42.48
2019-04-26T14:31:51.342Z,41.12
2019-04-26T14:34:19.266Z,41.80
2019-04-26T14:36:47.997Z,41.20
2019-04-26T14:39:19.652Z,40.22
2019-04-26T14:41:46.671Z,40.11
2019-04-26T14:44:16.064Z,40.30
2019-04-26T14:46:48.808Z,41.79
2019-04-26T14:49:14.728Z,41.22
2019-04-26T14:51:43.153Z,41.57
2019-04-26T14:54:12.513Z,41.90
2019-04-26T14:56:51.656Z,42.06
2019-04-26T14:59:12.211Z,43.76
2019-04-26T15:01:48.241Z,43.34
2019-04-26T15:04:33.623Z,42.56
2019-04-26T15:07:05.286Z,42.34
2019-04-26T15:09:34.689Z,42.95
2019-04-26T15:12:03.538Z,43.21
2019-04-26T15:14:33.258Z,41.79
2019-04-26T15:17:02.758Z,42.23
2019-04-26T15:19:34.637Z,41.67
2019-04-26T15:22:04.109Z,41.88
2019-04-26T15:24:34.999Z,41.59
2019-04-26T15:27:03.310Z,43.09
2019-04-26T15:29:32.350Z,41.68
2019-04-26T15:32:03.228Z,41.98
2019-04-26T15:34:31.388Z,41.89
2019-04-26T15:36:59.927Z,41.92
2019-04-26T15:39:50.296Z,42.83
2019-04-26T15:42:38.115Z,43.35
2019-04-26T15:45:09.838Z,43.76
2019-04-26T15:47:55.934Z,43.52
2019-04-26T15:50:29.076Z,43.63
2019-04-26T15:52:57.466Z,42.29
2019-04-26T15:55:26.008Z,42.69
2019-04-26T15:57:54.599Z,43.57
2019-04-26T16:00:23.156Z,43.36
2019-04-26T16:02:52.847Z,43.75
2019-04-26T16:05:24.410Z,43.30
2019-04-26T16:07:52.981Z,42.91
2019-04-26T16:10:25.602Z,44.75
2019-04-26T16:12:52.380Z,44.88
2019-04-26T16:15:20.824Z,45.53
2019-04-26T16:17:49.847Z,43.87
2019-04-26T16:20:18.473Z,44.61
2019-04-26T16:22:49.081Z,44.94
2019-04-26T16:25:17.264Z,45.69
2019-04-26T16:27:45.756Z,45.92
2019-04-26T16:30:28.440Z,45.42
2019-04-26T16:32:58.724Z,45.79
2019-04-26T16:35:28.447Z,45.67
2019-04-26T16:37:59.953Z,45.63
2019-04-26T16:40:27.788Z,46.28
2019-04-26T16:42:59.431Z,46.06
2019-04-26T16:45:26.462Z,45.80
2019-04-26T16:47:55.079Z,46.27
2019-04-26T16:50:31.165Z,46.97
2019-04-26T16:52:53.959Z,47.52
2019-04-26T16:55:24.710Z,47.45
2019-04-26T16:57:55.506Z,46.56
2019-04-26T17:00:47.019Z,47.30
2019-04-26T17:02:52.996Z,49.13
2019-04-26T17:05:35.635Z,51.52
2019-04-26T17:07:53.872Z,52.87
2019-04-26T17:10:24.681Z,54.54
2019-04-26T17:12:54.335Z,54.68
2019-04-26T17:17:52.678Z,54.73
2019-04-26T17:20:21.269Z,54.90
2019-04-26T17:23:06.618Z,56.37
2019-04-26T17:25:36.849Z,54.59
2019-04-26T17:28:05.366Z,55.98
2019-04-26T17:30:40.818Z,56.07
2019-04-26T17:33:04.591Z,55.60
2019-04-26T17:35:36.752Z,55.67
2019-04-26T17:38:05.176Z,55.34
2019-04-26T17:40:36.357Z,55.01
2019-04-26T17:43:05.461Z,55.47
2019-04-26T17:45:36.242Z,55.83
2019-04-26T17:48:06.549Z,56.37
2019-04-26T17:50:35.325Z,55.94
2019-04-26T17:53:06.582Z,56.04
2019-04-26T17:55:34.646Z,55.77
2019-04-26T17:58:11.806Z,56.72
2019-04-26T18:00:45.552Z,57.62
2019-04-26T18:03:07.649Z,58.52
2019-04-26T18:05:55.833Z,59.40
2019-04-26T18:08:31.303Z,59.70
2019-04-26T18:10:41.338Z,58.39
2019-04-26T18:13:11.316Z,58.92
2019-04-26T18:15:39.962Z,59.67
2019-04-26T18:18:13.875Z,60.85
2019-04-26T18:20:47.492Z,61.65
2019-04-26T18:23:18.783Z,62.12
2019-04-26T18:25:47.308Z,62.39
2019-04-26T18:28:16.398Z,61.94
2019-04-26T18:30:47.600Z,61.21
2019-04-26T18:33:17.660Z,60.80
2019-04-26T18:35:49.254Z,60.60
2019-04-26T18:38:15.649Z,60.54
2019-04-26T18:40:59.841Z,60.41
2019-04-26T18:43:17.625Z,60.82
2019-04-26T18:45:45.907Z,61.07
2019-04-26T18:48:14.567Z,61.41
2019-04-26T18:50:45.725Z,62.25
2019-04-26T18:53:15.017Z,62.46
2019-04-26T18:55:45.358Z,62.49
2019-04-26T18:58:14.007Z,62.59
2019-04-26T19:00:43.737Z,62.62
2019-04-26T19:03:14.200Z,62.95
2019-04-26T19:05:43.166Z,63.40
2019-04-26T19:08:12.786Z,63.46
2019-04-26T19:10:43.545Z,63.83
2019-04-26T19:13:13.906Z,64.36
2019-04-26T19:15:46.832Z,64.62
2019-04-26T19:18:19.722Z,65.04
2019-04-26T19:20:52.639Z,64.90
2019-04-26T19:23:24.448Z,64.88
2019-04-26T19:25:52.020Z,65.16
2019-04-26T19:28:22.298Z,65.67
2019-04-26T19:30:53.001Z,65.91
2019-04-26T19:33:21.608Z,66.01
2019-04-26T19:35:50.353Z,66.02
2019-04-26T19:38:18.730Z,66.08
2019-04-26T19:40:48.101Z,66.27
2019-04-26T19:43:28.086Z,66.45
2019-04-26T19:45:52.023Z,66.61
2019-04-26T19:48:26.098Z,66.70
2019-04-26T19:50:56.441Z,66.58
2019-04-26T19:53:26.463Z,66.51
2019-04-26T19:55:59.414Z,66.27
2019-04-26T19:58:32.119Z,66.23
2019-04-26T20:01:01.976Z,66.43
2019-04-26T20:03:32.014Z,66.35
2019-04-26T20:06:00.921Z,66.70
2019-04-26T20:08:29.554Z,66.87
2019-04-26T20:10:57.988Z,66.82
2019-04-26T20:13:26.406Z,66.74
2019-04-26T20:15:57.446Z,66.60
2019-04-26T20:18:25.212Z,66.65
2019-04-26T20:20:53.598Z,66.84
2019-04-26T20:23:22.842Z,66.91
2019-04-26T20:25:52.971Z,67.01
2019-04-26T20:28:22.808Z,66.92
2019-04-26T20:31:05.823Z,66.64
2019-04-26T20:33:31.243Z,66.80
2019-04-26T20:36:01.950Z,67.02
2019-04-26T20:38:35.857Z,67.18
2019-04-26T20:41:01.541Z,67.32
2019-04-26T20:43:32.070Z,67.40
2019-04-26T20:46:12.421Z,67.25
2019-04-26T20:48:33.116Z,67.20
2019-04-26T20:51:02.217Z,67.18
2019-04-26T20:53:40.102Z,67.15
2019-04-26T20:56:03.803Z,67.14
2019-04-26T20:58:31.390Z,67.09
2019-04-26T21:01:01.446Z,67.04
2019-04-26T21:03:31.807Z,67.13
2019-04-26T21:06:02.891Z,66.91
2019-04-26T21:08:31.702Z,66.74
2019-04-26T21:11:01.120Z,66.77
2019-04-26T21:13:31.050Z,66.79
2019-04-26T21:16:03.430Z,66.73
2019-04-26T21:18:33.532Z,66.67
2019-04-26T21:21:01.477Z,66.46
2019-04-26T21:23:35.068Z,66.48
2019-04-26T21:26:02.949Z,66.79
2019-04-26T21:28:38.123Z,67.04
2019-04-26T21:31:10.319Z,67.35
2019-04-26T21:33:40.478Z,67.48
2019-04-26T21:36:26.562Z,67.37
2019-04-26T21:39:04.072Z,67.63
2019-04-26T21:41:34.484Z,67.66
2019-04-26T21:44:03.183Z,67.84
2019-04-26T21:46:31.595Z,67.88
2019-04-26T21:49:00.247Z,68.56
2019-04-26T21:51:28.637Z,68.73
2019-04-26T21:53:57.321Z,68.87
2019-04-26T21:56:25.698Z,68.87
2019-04-26T21:58:54.088Z,68.62
2019-04-26T22:01:25.203Z,68.51
2019-04-26T22:03:58.175Z,68.73
2019-04-26T22:06:26.909Z,68.47
2019-04-26T22:08:59.313Z,68.18
2019-04-26T22:11:25.799Z,68.61
2019-04-26T22:14:03.065Z,68.89
2019-04-26T22:16:38.101Z,69.20
2019-04-26T22:19:16.716Z,69.32
2019-04-26T22:21:59.416Z,69.41
2019-04-26T22:24:36.145Z,69.44
2019-04-26T22:27:04.854Z,68.64
2019-04-26T22:29:33.481Z,68.64
2019-04-26T22:32:03.678Z,68.75
2019-04-26T22:34:32.254Z,68.72
2019-04-26T22:37:01.358Z,68.86
2019-04-26T22:39:32.718Z,68.50
2019-04-26T22:42:02.831Z,68.12
2019-04-26T22:44:51.463Z,67.75
2019-04-26T22:47:24.763Z,68.14
2019-04-26T22:49:53.154Z,68.10
2019-04-26T22:52:23.066Z,68.25
2019-04-26T22:54:53.703Z,68.23
2019-04-26T22:57:23.254Z,68.18
2019-04-26T22:59:53.365Z,68.30
2019-04-26T23:02:25.830Z,68.01
2019-04-26T23:04:55.919Z,67.92
2019-04-26T23:07:26.018Z,67.96
2019-04-26T23:09:55.479Z,68.04
2019-04-26T23:12:37.745Z,68.14
2019-04-26T23:15:30.127Z,68.49
2019-04-26T23:18:03.713Z,68.75
2019-04-26T23:20:39.629Z,68.37
2019-04-26T23:23:08.730Z,68.04
2019-04-26T23:25:37.522Z,67.80
2019-04-26T23:28:06.142Z,67.51
2019-04-26T23:30:35.107Z,67.13
2019-04-26T23:33:03.496Z,67.19
2019-04-26T23:35:37.521Z,67.51
2019-04-26T23:38:05.198Z,67.92
2019-04-26T23:40:33.442Z,67.78
2019-04-26T23:43:02.876Z,68.05
2019-04-26T23:45:33.356Z,67.88
2019-04-26T23:48:03.408Z,67.68
2019-04-26T23:50:33.948Z,67.25
2019-04-26T23:53:03.025Z,67.22
2019-04-26T23:55:31.829Z,67.21
2019-04-26T23:58:04.942Z,67.06
